sensor_id;sensor_type;location;lat;lon;timestamp;pressure;altitude;pressure_sealevel;temperature;humidity
60583;BME280;46415;47.536;19.066;2022-07-29T00:00:23;100415.97;;;22.58;57.38
60583;BME280;46415;47.536;19.066;2022-07-29T00:03:26;100421.44;;;22.57;57.13
60583;BME280;46415;47.536;19.066;2022-07-29T00:06:29;100418.78;;;22.57;57.42
60583;BME280;46415;47.536;19.066;2022-07-29T00:09:32;100415.97;;;22.58;57.09
60583;BME280;46415;47.536;19.066;2022-07-29T00:12:52;100423.50;;;22.63;57.16
60583;BME280;46415;47.536;19.066;2022-07-29T00:15:55;100416.16;;;22.57;57.89
60583;BME280;46415;47.536;19.066;2022-07-29T00:19:05;100415.44;;;22.55;57.51
60583;BME280;46415;47.536;19.066;2022-07-29T00:22:09;100416.41;;;22.54;57.20
60583;BME280;46415;47.536;19.066;2022-07-29T00:25:12;100411.97;;;22.54;57.73
60583;BME280;46415;47.536;19.066;2022-07-29T00:28:15;100412.81;;;22.55;57.14
60583;BME280;46415;47.536;19.066;2022-07-29T00:31:18;100421.03;;;22.52;58.30
60583;BME280;46415;47.536;19.066;2022-07-29T00:34:21;100416.84;;;22.49;57.94
60583;BME280;46415;47.536;19.066;2022-07-29T00:37:42;100419.63;;;22.48;57.88
60583;BME280;46415;47.536;19.066;2022-07-29T00:40:46;100422.16;;;22.49;57.41
60583;BME280;46415;47.536;19.066;2022-07-29T00:43:49;100415.75;;;22.52;58.20
60583;BME280;46415;47.536;19.066;2022-07-29T00:46:52;100425.22;;;22.45;58.45
60583;BME280;46415;47.536;19.066;2022-07-29T00:49:55;100423.97;;;22.39;57.94
60583;BME280;46415;47.536;19.066;2022-07-29T00:52:58;100415.19;;;22.38;59.02
60583;BME280;46415;47.536;19.066;2022-07-29T00:56:01;100406.69;;;22.35;58.38
60583;BME280;46415;47.536;19.066;2022-07-29T00:59:04;100406.03;;;22.33;59.11
60583;BME280;46415;47.536;19.066;2022-07-29T01:02:06;100412.16;;;22.33;58.45
60583;BME280;46415;47.536;19.066;2022-07-29T01:05:10;100416.87;;;22.30;58.52
60583;BME280;46415;47.536;19.066;2022-07-29T01:08:14;100407.00;;;22.32;58.14
60583;BME280;46415;47.536;19.066;2022-07-29T01:11:18;100404.62;;;22.29;58.81
60583;BME280;46415;47.536;19.066;2022-07-29T01:14:21;100401.31;;;22.27;58.46
60583;BME280;46415;47.536;19.066;2022-07-29T01:21:39;100405.06;;;22.24;58.41
60583;BME280;46415;47.536;19.066;2022-07-29T01:32:15;100400.47;;;22.26;58.68
60583;BME280;46415;47.536;19.066;2022-07-29T01:35:39;100400.03;;;22.31;58.16
60583;BME280;46415;47.536;19.066;2022-07-29T01:38:44;100396.56;;;22.30;58.33
60583;BME280;46415;47.536;19.066;2022-07-29T01:45:41;100398.94;;;22.24;59.60
60583;BME280;46415;47.536;19.066;2022-07-29T01:49:10;100401.59;;;22.14;59.84
60583;BME280;46415;47.536;19.066;2022-07-29T01:52:19;100404.22;;;22.14;60.05
60583;BME280;46415;47.536;19.066;2022-07-29T01:55:28;100403.81;;;22.09;60.39
60583;BME280;46415;47.536;19.066;2022-07-29T01:58:31;100395.75;;;22.01;60.79
60583;BME280;46415;47.536;19.066;2022-07-29T02:01:36;100392.13;;;21.92;60.46
60583;BME280;46415;47.536;19.066;2022-07-29T02:04:41;100398.38;;;21.91;60.04
60583;BME280;46415;47.536;19.066;2022-07-29T02:07:47;100390.84;;;21.87;59.71
60583;BME280;46415;47.536;19.066;2022-07-29T02:10:51;100389.87;;;21.88;59.86
60583;BME280;46415;47.536;19.066;2022-07-29T02:13:56;100393.63;;;21.85;60.65
60583;BME280;46415;47.536;19.066;2022-07-29T02:17:02;100395.03;;;21.80;60.26
60583;BME280;46415;47.536;19.066;2022-07-29T02:20:05;100397.66;;;21.80;60.56
60583;BME280;46415;47.536;19.066;2022-07-29T02:23:10;100389.47;;;21.73;61.16
60583;BME280;46415;47.536;19.066;2022-07-29T02:26:14;100392.94;;;21.74;60.97
60583;BME280;46415;47.536;19.066;2022-07-29T02:29:23;100381.41;;;21.75;60.81
60583;BME280;46415;47.536;19.066;2022-07-29T02:32:27;100384.84;;;21.75;60.34
60583;BME280;46415;47.536;19.066;2022-07-29T02:35:31;100381.78;;;21.70;61.03
60583;BME280;46415;47.536;19.066;2022-07-29T02:38:36;100387.38;;;21.67;61.59
60583;BME280;46415;47.536;19.066;2022-07-29T02:42:12;100387.50;;;21.66;60.85
60583;BME280;46415;47.536;19.066;2022-07-29T02:45:15;100396.50;;;21.53;61.39
60583;BME280;46415;47.536;19.066;2022-07-29T02:48:22;100387.47;;;21.46;61.74
60583;BME280;46415;47.536;19.066;2022-07-29T02:52:03;100389.13;;;21.47;61.87
60583;BME280;46415;47.536;19.066;2022-07-29T03:01:24;100384.22;;;21.33;63.48
60583;BME280;46415;47.536;19.066;2022-07-29T03:04:28;100386.00;;;21.23;64.04
60583;BME280;46415;47.536;19.066;2022-07-29T03:07:34;100382.94;;;21.18;64.55
60583;BME280;46415;47.536;19.066;2022-07-29T03:10:39;100390.88;;;21.18;64.79
60583;BME280;46415;47.536;19.066;2022-07-29T03:13:43;100384.75;;;21.17;65.35
60583;BME280;46415;47.536;19.066;2022-07-29T03:16:46;100383.31;;;21.13;65.44
60583;BME280;46415;47.536;19.066;2022-07-29T03:19:50;100393.28;;;21.10;65.79
60583;BME280;46415;47.536;19.066;2022-07-29T03:22:53;100397.91;;;21.08;65.82
60583;BME280;46415;47.536;19.066;2022-07-29T03:25:56;100397.91;;;21.08;65.84
60583;BME280;46415;47.536;19.066;2022-07-29T03:28:59;100393.81;;;21.04;66.59
60583;BME280;46415;47.536;19.066;2022-07-29T03:32:04;100400.09;;;21.03;67.13
60583;BME280;46415;47.536;19.066;2022-07-29T03:35:10;100396.63;;;21.02;67.21
60583;BME280;46415;47.536;19.066;2022-07-29T03:38:13;100397.59;;;21.01;67.40
60583;BME280;46415;47.536;19.066;2022-07-29T03:41:16;100397.91;;;21.08;67.24
60583;BME280;46415;47.536;19.066;2022-07-29T03:44:24;100389.44;;;21.14;66.84
60583;BME280;46415;47.536;19.066;2022-07-29T03:47:29;100386.44;;;21.28;66.41
60583;BME280;46415;47.536;19.066;2022-07-29T03:50:53;100398.69;;;21.29;66.56
60583;BME280;46415;47.536;19.066;2022-07-29T03:53:56;100398.41;;;21.32;67.01
60583;BME280;46415;47.536;19.066;2022-07-29T03:57:01;100400.22;;;21.32;67.29
60583;BME280;46415;47.536;19.066;2022-07-29T04:00:05;100405.63;;;21.30;71.55
60583;BME280;46415;47.536;19.066;2022-07-29T04:03:09;100405.63;;;21.30;73.90
60583;BME280;46415;47.536;19.066;2022-07-29T04:06:13;100405.63;;;21.30;73.04
60583;BME280;46415;47.536;19.066;2022-07-29T04:09:15;100408.69;;;21.35;70.37
60583;BME280;46415;47.536;19.066;2022-07-29T04:12:18;100409.94;;;21.31;71.42
60583;BME280;46415;47.536;19.066;2022-07-29T04:15:21;100408.81;;;21.34;72.32
60583;BME280;46415;47.536;19.066;2022-07-29T04:18:24;100406.63;;;21.39;70.62
60583;BME280;46415;47.536;19.066;2022-07-29T04:21:27;100417.47;;;21.45;70.15
60583;BME280;46415;47.536;19.066;2022-07-29T04:24:29;100413.59;;;21.49;70.46
60583;BME280;46415;47.536;19.066;2022-07-29T04:27:32;100415.28;;;21.50;69.88
60583;BME280;46415;47.536;19.066;2022-07-29T04:30:36;100408.88;;;21.53;72.47
60583;BME280;46415;47.536;19.066;2022-07-29T04:33:39;100408.22;;;21.61;70.56
60583;BME280;46415;47.536;19.066;2022-07-29T04:36:42;100412.66;;;21.70;69.34
60583;BME280;46415;47.536;19.066;2022-07-29T04:39:44;100403.22;;;21.77;69.54
60583;BME280;46415;47.536;19.066;2022-07-29T04:42:47;100408.38;;;21.78;70.60
60583;BME280;46415;47.536;19.066;2022-07-29T04:45:51;100407.69;;;21.86;74.42
60583;BME280;46415;47.536;19.066;2022-07-29T04:48:53;100403.97;;;21.98;69.75
60583;BME280;46415;47.536;19.066;2022-07-29T04:51:56;100406.16;;;22.12;68.44
60583;BME280;46415;47.536;19.066;2022-07-29T04:55:00;100410.34;;;22.15;68.61
60583;BME280;46415;47.536;19.066;2022-07-29T04:58:03;100415.25;;;22.10;71.03
60583;BME280;46415;47.536;19.066;2022-07-29T05:01:06;100416.75;;;22.12;71.15
60583;BME280;46415;47.536;19.066;2022-07-29T05:04:08;100419.69;;;22.28;70.45
60583;BME280;46415;47.536;19.066;2022-07-29T05:07:11;100414.38;;;22.38;69.25
60583;BME280;46415;47.536;19.066;2022-07-29T05:10:14;100416.31;;;22.46;68.90
60583;BME280;46415;47.536;19.066;2022-07-29T05:13:16;100416.28;;;22.55;67.68
60583;BME280;46415;47.536;19.066;2022-07-29T05:16:19;100421.44;;;22.76;67.31
60583;BME280;46415;47.536;19.066;2022-07-29T05:19:22;100414.03;;;22.79;66.62
60583;BME280;46415;47.536;19.066;2022-07-29T05:22:25;100413.97;;;22.89;65.77
60583;BME280;46415;47.536;19.066;2022-07-29T05:25:29;100409.25;;;22.83;66.75
60583;BME280;46415;47.536;19.066;2022-07-29T05:28:45;100414.22;;;23.05;64.50
60583;BME280;46415;47.536;19.066;2022-07-29T05:31:48;100411.91;;;23.20;63.40
60583;BME280;46415;47.536;19.066;2022-07-29T05:34:50;100416.94;;;23.23;63.42
60583;BME280;46415;47.536;19.066;2022-07-29T05:37:53;100417.75;;;23.24;63.67
60583;BME280;46415;47.536;19.066;2022-07-29T05:40:57;100408.81;;;23.25;63.84
60583;BME280;46415;47.536;19.066;2022-07-29T05:44:00;100415.97;;;23.42;62.27
60583;BME280;46415;47.536;19.066;2022-07-29T05:47:03;100419.06;;;23.47;62.23
60583;BME280;46415;47.536;19.066;2022-07-29T05:50:06;100424.88;;;23.50;61.33
60583;BME280;46415;47.536;19.066;2022-07-29T05:53:09;100425.41;;;23.54;62.61
60583;BME280;46415;47.536;19.066;2022-07-29T05:56:21;100417.88;;;23.59;60.92
60583;BME280;46415;47.536;19.066;2022-07-29T05:59:24;100427.28;;;23.71;60.80
60583;BME280;46415;47.536;19.066;2022-07-29T06:02:31;100423.81;;;23.88;59.76
60583;BME280;46415;47.536;19.066;2022-07-29T06:05:34;100423.56;;;23.99;59.58
60583;BME280;46415;47.536;19.066;2022-07-29T06:08:37;100424.94;;;24.04;59.38
60583;BME280;46415;47.536;19.066;2022-07-29T06:11:40;100426.69;;;24.13;59.86
60583;BME280;46415;47.536;19.066;2022-07-29T06:14:43;100422.03;;;24.32;57.73
60583;BME280;46415;47.536;19.066;2022-07-29T06:17:46;100426.59;;;24.40;58.56
60583;BME280;46415;47.536;19.066;2022-07-29T06:21:01;100432.69;;;24.58;57.06
60583;BME280;46415;47.536;19.066;2022-07-29T06:24:04;100429.84;;;24.77;56.25
60583;BME280;46415;47.536;19.066;2022-07-29T06:27:07;100422.59;;;24.88;56.97
60583;BME280;46415;47.536;19.066;2022-07-29T06:30:10;100422.41;;;25.07;54.33
60583;BME280;46415;47.536;19.066;2022-07-29T06:33:17;100432.06;;;25.16;53.12
60583;BME280;46415;47.536;19.066;2022-07-29T06:36:21;100434.22;;;25.20;52.73
60583;BME280;46415;47.536;19.066;2022-07-29T06:39:26;100433.09;;;25.23;54.80
60583;BME280;46415;47.536;19.066;2022-07-29T06:42:30;100432.94;;;25.33;52.68
60583;BME280;46415;47.536;19.066;2022-07-29T06:45:36;100443.47;;;25.42;52.45
60583;BME280;46415;47.536;19.066;2022-07-29T06:48:40;100438.84;;;25.52;53.01
60583;BME280;46415;47.536;19.066;2022-07-29T06:51:44;100439.94;;;25.84;50.62
60583;BME280;46415;47.536;19.066;2022-07-29T06:54:47;100441.16;;;25.97;49.87
60583;BME280;46415;47.536;19.066;2022-07-29T06:57:50;100435.31;;;26.10;49.33
60583;BME280;46415;47.536;19.066;2022-07-29T07:00:54;100436.38;;;26.33;49.74
60583;BME280;46415;47.536;19.066;2022-07-29T07:04:00;100433.69;;;26.50;48.62
60583;BME280;46415;47.536;19.066;2022-07-29T07:07:03;100434.03;;;26.55;47.59
60583;BME280;46415;47.536;19.066;2022-07-29T07:10:06;100426.03;;;26.55;47.24
60583;BME280;46415;47.536;19.066;2022-07-29T07:13:10;100436.66;;;26.71;47.82
60583;BME280;46415;47.536;19.066;2022-07-29T07:16:12;100437.44;;;26.88;47.84
60583;BME280;46415;47.536;19.066;2022-07-29T07:19:15;100428.50;;;26.80;48.64
60583;BME280;46415;47.536;19.066;2022-07-29T07:22:18;100419.31;;;26.83;48.75
60583;BME280;46415;47.536;19.066;2022-07-29T07:25:22;100415.31;;;26.87;47.49
60583;BME280;46415;47.536;19.066;2022-07-29T07:28:25;100424.31;;;26.94;46.53
60583;BME280;46415;47.536;19.066;2022-07-29T07:31:28;100421.66;;;27.33;44.47
60583;BME280;46415;47.536;19.066;2022-07-29T07:34:31;100416.13;;;27.51;44.66
60583;BME280;46415;47.536;19.066;2022-07-29T07:37:33;100419.63;;;27.74;44.45
60583;BME280;46415;47.536;19.066;2022-07-29T07:40:37;100416.41;;;27.56;44.73
60583;BME280;46415;47.536;19.066;2022-07-29T07:43:40;100420.09;;;27.55;44.14
60583;BME280;46415;47.536;19.066;2022-07-29T07:46:42;100415.59;;;27.55;43.96
60583;BME280;46415;47.536;19.066;2022-07-29T07:49:47;100414.53;;;27.65;43.29
60583;BME280;46415;47.536;19.066;2022-07-29T07:52:51;100416.69;;;27.92;43.21
60583;BME280;46415;47.536;19.066;2022-07-29T07:55:55;100415.63;;;28.24;43.38
60583;BME280;46415;47.536;19.066;2022-07-29T07:59:14;100398.62;;;28.39;42.72
60583;BME280;46415;47.536;19.066;2022-07-29T08:02:17;100409.63;;;28.59;42.70
60583;BME280;46415;47.536;19.066;2022-07-29T08:05:20;100412.47;;;28.72;42.62
60583;BME280;46415;47.536;19.066;2022-07-29T08:08:22;100407.47;;;28.77;40.87
60583;BME280;46415;47.536;19.066;2022-07-29T08:11:25;100407.81;;;28.74;41.06
60583;BME280;46415;47.536;19.066;2022-07-29T08:14:30;100405.63;;;28.93;40.16
60583;BME280;46415;47.536;19.066;2022-07-29T08:17:33;100403.00;;;29.14;39.78
60583;BME280;46415;47.536;19.066;2022-07-29T08:20:37;100405.06;;;29.12;40.21
60583;BME280;46415;47.536;19.066;2022-07-29T08:23:44;100399.50;;;29.28;39.62
60583;BME280;46415;47.536;19.066;2022-07-29T08:26:54;100396.06;;;29.49;39.40
60583;BME280;46415;47.536;19.066;2022-07-29T08:29:56;100395.31;;;29.55;38.96
60583;BME280;46415;47.536;19.066;2022-07-29T08:32:59;100398.94;;;29.69;38.31
60583;BME280;46415;47.536;19.066;2022-07-29T08:36:03;100396.66;;;29.66;38.47
60583;BME280;46415;47.536;19.066;2022-07-29T08:39:06;100397.03;;;29.62;38.16
60583;BME280;46415;47.536;19.066;2022-07-29T08:42:08;100399.28;;;29.80;38.67
60583;BME280;46415;47.536;19.066;2022-07-29T08:45:12;100397.47;;;30.02;37.62
60583;BME280;46415;47.536;19.066;2022-07-29T08:48:21;100391.59;;;30.13;36.87
60583;BME280;46415;47.536;19.066;2022-07-29T08:51:26;100398.03;;;30.19;36.41
60583;BME280;46415;47.536;19.066;2022-07-29T08:54:30;100393.06;;;30.43;36.26
60583;BME280;46415;47.536;19.066;2022-07-29T08:57:34;100386.59;;;30.31;36.24
60583;BME280;46415;47.536;19.066;2022-07-29T09:00:43;100381.91;;;30.40;36.40
60583;BME280;46415;47.536;19.066;2022-07-29T09:03:54;100383.88;;;30.53;35.83
60583;BME280;46415;47.536;19.066;2022-07-29T09:06:58;100379.06;;;30.76;35.76
60583;BME280;46415;47.536;19.066;2022-07-29T09:10:04;100381.25;;;31.00;34.36
60583;BME280;46415;47.536;19.066;2022-07-29T09:13:07;100374.59;;;30.83;34.96
60583;BME280;46415;47.536;19.066;2022-07-29T09:16:10;100374.88;;;31.01;35.07
60583;BME280;46415;47.536;19.066;2022-07-29T09:19:42;100370.22;;;31.10;34.27
60583;BME280;46415;47.536;19.066;2022-07-29T09:22:46;100371.38;;;31.01;34.65
60583;BME280;46415;47.536;19.066;2022-07-29T09:25:53;100364.91;;;31.30;35.00
60583;BME280;46415;47.536;19.066;2022-07-29T09:28:57;100369.72;;;31.54;33.63
60583;BME280;46415;47.536;19.066;2022-07-29T09:32:00;100363.19;;;31.63;33.16
60583;BME280;46415;47.536;19.066;2022-07-29T09:38:18;100362.19;;;31.97;32.07
60583;BME280;46415;47.536;19.066;2022-07-29T09:41:21;100361.75;;;32.00;32.41
60583;BME280;46415;47.536;19.066;2022-07-29T09:44:25;100354.75;;;31.92;32.57
60583;BME280;46415;47.536;19.066;2022-07-29T09:47:44;100350.62;;;32.10;31.34
60583;BME280;46415;47.536;19.066;2022-07-29T09:50:51;100345.44;;;32.01;31.49
60583;BME280;46415;47.536;19.066;2022-07-29T09:53:54;100339.03;;;32.09;31.97
60583;BME280;46415;47.536;19.066;2022-07-29T09:56:57;100339.47;;;32.39;31.98
60583;BME280;46415;47.536;19.066;2022-07-29T10:00:05;100334.47;;;32.49;31.84
60583;BME280;46415;47.536;19.066;2022-07-29T10:03:13;100334.66;;;32.54;30.86
60583;BME280;46415;47.536;19.066;2022-07-29T10:06:17;100332.16;;;32.66;30.71
60583;BME280;46415;47.536;19.066;2022-07-29T10:09:20;100329.44;;;32.86;31.13
60583;BME280;46415;47.536;19.066;2022-07-29T10:12:26;100326.38;;;33.13;30.06
60583;BME280;46415;47.536;19.066;2022-07-29T10:15:31;100329.25;;;33.25;29.82
60583;BME280;46415;47.536;19.066;2022-07-29T10:18:35;100324.91;;;32.73;28.34
60583;BME280;46415;47.536;19.066;2022-07-29T10:21:39;100329.19;;;32.94;29.35
60583;BME280;46415;47.536;19.066;2022-07-29T10:24:45;100329.44;;;32.79;29.06
60583;BME280;46415;47.536;19.066;2022-07-29T10:27:48;100314.87;;;32.09;29.95
60583;BME280;46415;47.536;19.066;2022-07-29T10:31:03;100316.72;;;32.09;30.08
60583;BME280;46415;47.536;19.066;2022-07-29T10:41:39;100301.44;;;31.89;30.57
60583;BME280;46415;47.536;19.066;2022-07-29T10:44:48;100300.34;;;32.69;29.89
60583;BME280;46415;47.536;19.066;2022-07-29T10:48:03;100307.31;;;33.59;27.87
60583;BME280;46415;47.536;19.066;2022-07-29T10:51:09;100308.78;;;34.12;26.82
60583;BME280;46415;47.536;19.066;2022-07-29T10:54:13;100302.25;;;34.26;26.79
60583;BME280;46415;47.536;19.066;2022-07-29T10:57:29;100298.78;;;33.94;26.78
60583;BME280;46415;47.536;19.066;2022-07-29T11:00:53;100289.72;;;33.57;26.94
60583;BME280;46415;47.536;19.066;2022-07-29T11:03:57;100289.28;;;32.91;28.03
60583;BME280;46415;47.536;19.066;2022-07-29T11:17:01;100273.81;;;34.05;27.41
60583;BME280;46415;47.536;19.066;2022-07-29T11:23:39;100275.75;;;34.41;26.40
60583;BME280;46415;47.536;19.066;2022-07-29T11:27:12;100270.72;;;34.45;26.07
60583;BME280;46415;47.536;19.066;2022-07-29T11:30:20;100274.97;;;35.18;25.85
60583;BME280;46415;47.536;19.066;2022-07-29T11:33:30;100260.53;;;35.43;24.23
60583;BME280;46415;47.536;19.066;2022-07-29T11:40:10;100244.09;;;35.44;24.66
60583;BME280;46415;47.536;19.066;2022-07-29T11:47:10;100242.91;;;35.52;24.29
60583;BME280;46415;47.536;19.066;2022-07-29T11:50:35;100241.97;;;35.46;24.32
60583;BME280;46415;47.536;19.066;2022-07-29T11:53:48;100243.50;;;35.42;24.70
60583;BME280;46415;47.536;19.066;2022-07-29T11:56:54;100238.22;;;35.59;24.60
60583;BME280;46415;47.536;19.066;2022-07-29T11:59:57;100231.00;;;35.83;23.91
60583;BME280;46415;47.536;19.066;2022-07-29T12:03:11;100229.00;;;36.01;24.15
60583;BME280;46415;47.536;19.066;2022-07-29T12:06:14;100242.16;;;36.10;23.52
60583;BME280;46415;47.536;19.066;2022-07-29T12:09:37;100228.78;;;35.91;23.07
60583;BME280;46415;47.536;19.066;2022-07-29T12:12:51;100224.97;;;35.57;23.64
60583;BME280;46415;47.536;19.066;2022-07-29T12:15:56;100226.56;;;35.24;24.25
60583;BME280;46415;47.536;19.066;2022-07-29T12:19:02;100223.91;;;35.47;23.87
60583;BME280;46415;47.536;19.066;2022-07-29T12:22:05;100219.63;;;35.92;23.25
60583;BME280;46415;47.536;19.066;2022-07-29T12:25:12;100212.41;;;36.10;22.83
60583;BME280;46415;47.536;19.066;2022-07-29T12:28:38;100205.97;;;35.76;22.98
60583;BME280;46415;47.536;19.066;2022-07-29T12:31:42;100208.50;;;35.36;23.66
60583;BME280;46415;47.536;19.066;2022-07-29T12:34:47;100203.50;;;35.51;23.40
60583;BME280;46415;47.536;19.066;2022-07-29T12:37:50;100199.13;;;35.27;23.59
60583;BME280;46415;47.536;19.066;2022-07-29T12:40:57;100190.78;;;35.40;23.58
60583;BME280;46415;47.536;19.066;2022-07-29T12:44:00;100182.56;;;34.93;23.85
60583;BME280;46415;47.536;19.066;2022-07-29T12:47:03;100165.47;;;34.99;23.62
60583;BME280;46415;47.536;19.066;2022-07-29T12:50:14;100172.47;;;35.30;23.59
60583;BME280;46415;47.536;19.066;2022-07-29T12:53:25;100178.69;;;35.31;23.88
60583;BME280;46415;47.536;19.066;2022-07-29T12:56:28;100163.78;;;35.28;23.94
60583;BME280;46415;47.536;19.066;2022-07-29T13:00:16;100162.84;;;35.22;23.85
60583;BME280;46415;47.536;19.066;2022-07-29T13:03:23;100155.19;;;35.08;23.59
60583;BME280;46415;47.536;19.066;2022-07-29T13:09:44;100160.34;;;35.09;24.32
60583;BME280;46415;47.536;19.066;2022-07-29T13:13:14;100156.88;;;35.32;23.43
60583;BME280;46415;47.536;19.066;2022-07-29T13:16:17;100156.00;;;35.08;23.81
60583;BME280;46415;47.536;19.066;2022-07-29T13:19:33;100154.22;;;35.02;23.64
60583;BME280;46415;47.536;19.066;2022-07-29T13:22:36;100148.63;;;35.15;23.07
60583;BME280;46415;47.536;19.066;2022-07-29T13:25:39;100139.38;;;35.23;23.58
60583;BME280;46415;47.536;19.066;2022-07-29T13:28:43;100129.78;;;35.39;22.96
60583;BME280;46415;47.536;19.066;2022-07-29T13:31:45;100141.63;;;35.49;23.41
60583;BME280;46415;47.536;19.066;2022-07-29T13:34:48;100136.34;;;35.43;22.61
60583;BME280;46415;47.536;19.066;2022-07-29T13:37:51;100133.41;;;35.33;22.81
60583;BME280;46415;47.536;19.066;2022-07-29T13:40:55;100128.25;;;35.43;23.34
60583;BME280;46415;47.536;19.066;2022-07-29T13:43:57;100128.69;;;35.40;23.33
60583;BME280;46415;47.536;19.066;2022-07-29T13:47:00;100121.66;;;35.62;22.93
60583;BME280;46415;47.536;19.066;2022-07-29T13:50:04;100126.25;;;35.50;22.99
60583;BME280;46415;47.536;19.066;2022-07-29T13:53:08;100115.78;;;35.53;22.65
60583;BME280;46415;47.536;19.066;2022-07-29T13:56:19;100115.91;;;35.70;23.69
60583;BME280;46415;47.536;19.066;2022-07-29T13:59:21;100108.25;;;35.90;23.01
60583;BME280;46415;47.536;19.066;2022-07-29T14:02:24;100102.69;;;36.09;22.73
60583;BME280;46415;47.536;19.066;2022-07-29T14:05:27;100103.16;;;36.06;22.55
60583;BME280;46415;47.536;19.066;2022-07-29T14:08:30;100097.19;;;36.04;22.46
60583;BME280;46415;47.536;19.066;2022-07-29T14:11:33;100098.34;;;36.08;22.37
60583;BME280;46415;47.536;19.066;2022-07-29T14:14:36;100099.75;;;36.22;22.61
60583;BME280;46415;47.536;19.066;2022-07-29T14:17:39;100095.03;;;36.06;22.59
60583;BME280;46415;47.536;19.066;2022-07-29T14:20:42;100088.56;;;35.55;22.61
60583;BME280;46415;47.536;19.066;2022-07-29T14:23:44;100093.94;;;35.08;23.37
60583;BME280;46415;47.536;19.066;2022-07-29T14:26:47;100084.84;;;35.33;23.15
60583;BME280;46415;47.536;19.066;2022-07-29T14:29:50;100082.94;;;36.08;22.85
60583;BME280;46415;47.536;19.066;2022-07-29T14:32:53;100087.81;;;36.34;22.11
60583;BME280;46415;47.536;19.066;2022-07-29T14:35:56;100080.13;;;36.60;21.34
60583;BME280;46415;47.536;19.066;2022-07-29T14:39:02;100078.81;;;36.46;21.76
60583;BME280;46415;47.536;19.066;2022-07-29T14:42:06;100064.88;;;36.54;21.52
60583;BME280;46415;47.536;19.066;2022-07-29T14:45:10;100065.41;;;37.01;21.47
60583;BME280;46415;47.536;19.066;2022-07-29T14:48:13;100061.97;;;36.89;21.54
60583;BME280;46415;47.536;19.066;2022-07-29T14:51:16;100069.03;;;36.90;21.82
60583;BME280;46415;47.536;19.066;2022-07-29T14:54:18;100059.84;;;36.91;21.56
60583;BME280;46415;47.536;19.066;2022-07-29T14:57:21;100053.47;;;37.13;21.57
60583;BME280;46415;47.536;19.066;2022-07-29T15:00:26;100054.97;;;37.59;20.81
60583;BME280;46415;47.536;19.066;2022-07-29T15:03:29;100046.81;;;38.03;20.80
60583;BME280;46415;47.536;19.066;2022-07-29T15:06:35;100029.94;;;38.50;19.75
60583;BME280;46415;47.536;19.066;2022-07-29T15:09:38;100034.19;;;39.46;18.92
60583;BME280;46415;47.536;19.066;2022-07-29T15:12:51;100030.97;;;40.47;17.92
60583;BME280;46415;47.536;19.066;2022-07-29T15:15:55;100031.88;;;42.22;16.66
60583;BME280;46415;47.536;19.066;2022-07-29T15:19:02;100036.44;;;44.13;14.69
60583;BME280;46415;47.536;19.066;2022-07-29T15:22:04;100033.72;;;46.15;13.28
60583;BME280;46415;47.536;19.066;2022-07-29T15:25:08;100025.53;;;47.21;12.36
60583;BME280;46415;47.536;19.066;2022-07-29T15:28:11;100027.31;;;47.26;12.15
60583;BME280;46415;47.536;19.066;2022-07-29T15:31:14;100031.06;;;48.55;11.36
60583;BME280;46415;47.536;19.066;2022-07-29T15:34:16;100022.03;;;48.20;11.40
60583;BME280;46415;47.536;19.066;2022-07-29T15:37:19;100022.34;;;48.10;11.64
60583;BME280;46415;47.536;19.066;2022-07-29T15:40:24;100026.72;;;48.20;11.46
60583;BME280;46415;47.536;19.066;2022-07-29T15:43:27;100021.75;;;48.86;10.62
60583;BME280;46415;47.536;19.066;2022-07-29T15:46:29;100019.47;;;48.88;10.86
60583;BME280;46415;47.536;19.066;2022-07-29T15:49:51;100012.41;;;49.16;10.23
60583;BME280;46415;47.536;19.066;2022-07-29T15:52:53;100019.84;;;49.95;10.05
60583;BME280;46415;47.536;19.066;2022-07-29T15:55:56;100004.38;;;49.82;10.42
60583;BME280;46415;47.536;19.066;2022-07-29T15:58:59;100011.34;;;50.54;9.62
60583;BME280;46415;47.536;19.066;2022-07-29T16:02:02;100003.50;;;49.69;10.52
60583;BME280;46415;47.536;19.066;2022-07-29T16:05:05;99992.13;;;45.99;13.16
60583;BME280;46415;47.536;19.066;2022-07-29T16:08:10;99998.59;;;42.20;15.63
60583;BME280;46415;47.536;19.066;2022-07-29T16:11:13;100003.19;;;39.37;18.22
60583;BME280;46415;47.536;19.066;2022-07-29T16:14:16;99997.34;;;39.76;18.42
60583;BME280;46415;47.536;19.066;2022-07-29T16:17:19;99999.38;;;41.81;16.42
60583;BME280;46415;47.536;19.066;2022-07-29T16:20:22;100005.19;;;42.53;15.75
60583;BME280;46415;47.536;19.066;2022-07-29T16:23:25;99999.72;;;42.19;15.88
60583;BME280;46415;47.536;19.066;2022-07-29T16:26:28;100000.53;;;39.52;18.56
60583;BME280;46415;47.536;19.066;2022-07-29T16:29:31;99990.38;;;38.49;19.01
60583;BME280;46415;47.536;19.066;2022-07-29T16:32:33;99995.28;;;37.33;20.33
60583;BME280;46415;47.536;19.066;2022-07-29T16:35:36;99989.50;;;37.24;20.82
60583;BME280;46415;47.536;19.066;2022-07-29T16:38:41;99988.56;;;37.35;21.65
60583;BME280;46415;47.536;19.066;2022-07-29T16:41:49;99993.75;;;37.03;20.91
60583;BME280;46415;47.536;19.066;2022-07-29T16:44:51;99994.94;;;36.57;21.82
60583;BME280;46415;47.536;19.066;2022-07-29T16:47:54;99988.13;;;35.81;22.19
60583;BME280;46415;47.536;19.066;2022-07-29T16:51:02;99986.50;;;35.29;23.24
60583;BME280;46415;47.536;19.066;2022-07-29T16:54:05;99981.69;;;34.72;23.23